createdAt,value
2022-10-13T00:02:23.009Z,93.04
2022-10-13T00:07:23.174Z,94.05
2022-10-13T00:12:23.041Z,94.05
2022-10-13T00:17:23.068Z,94.50
2022-10-13T00:22:23.034Z,95.79
2022-10-13T00:27:23.050Z,93.18
2022-10-13T00:32:23.016Z,92.24
2022-10-13T00:37:23.074Z,92.55
2022-10-13T00:47:23.072Z,92.26
2022-10-13T00:52:23.045Z,97.23
2022-10-13T00:57:23.072Z,97.48
2022-10-13T01:02:23.454Z,95.30
2022-10-13T01:07:23.386Z,94.99
2022-10-13T01:12:23.052Z,94.42
2022-10-13T01:17:23.332Z,94.42
2022-10-13T01:22:23.097Z,96.76
2022-10-13T01:27:23.265Z,96.45
2022-10-13T01:32:23.050Z,98.35
2022-10-13T01:37:23.208Z,98.35
2022-10-13T01:42:23.062Z,99.63
2022-10-13T01:47:23.195Z,99.65
2022-10-13T01:52:23.084Z,100.00
2022-10-13T01:57:23.105Z,100.00
2022-10-13T02:02:23.296Z,100.00
2022-10-13T02:07:23.089Z,100.00
2022-10-13T02:12:23.153Z,100.00
2022-10-13T02:17:23.401Z,99.74
2022-10-13T02:22:23.215Z,100.00
2022-10-13T02:27:23.390Z,100.00
2022-10-13T02:32:23.074Z,100.00
2022-10-13T02:37:23.136Z,99.77
2022-10-13T02:42:23.515Z,100.00
2022-10-13T02:47:23.333Z,100.00
2022-10-13T02:52:23.136Z,100.00
2022-10-13T02:57:23.311Z,100.00
2022-10-13T03:02:23.447Z,100.00
2022-10-13T03:07:23.119Z,100.00
2022-10-13T03:08:52.714Z,99.92
2022-10-13T03:12:23.432Z,98.85
2022-10-13T03:17:23.153Z,98.85
2022-10-13T03:22:23.459Z,98.01
2022-10-13T03:27:23.197Z,98.35
2022-10-13T03:32:23.332Z,97.92
2022-10-13T03:37:23.214Z,99.06
2022-10-13T03:42:23.135Z,98.38
2022-10-13T03:52:23.545Z,97.71
2022-10-13T03:57:23.131Z,99.75
2022-10-13T04:02:23.263Z,100.00
2022-10-13T04:07:23.407Z,100.00
2022-10-13T04:12:23.702Z,99.09
2022-10-13T04:17:23.374Z,98.29
2022-10-13T04:22:23.438Z,98.21
2022-10-13T04:27:23.149Z,98.36
2022-10-13T04:32:23.293Z,98.36
2022-10-13T04:37:23.384Z,99.11
2022-10-13T04:42:23.394Z,100.00
2022-10-13T04:47:23.269Z,100.00
2022-10-13T04:52:23.249Z,100.00
2022-10-13T04:57:23.236Z,100.00
2022-10-13T05:02:23.391Z,100.00
2022-10-13T05:12:23.569Z,100.00
2022-10-13T05:17:23.589Z,100.00
2022-10-13T05:22:23.448Z,100.00
2022-10-13T05:32:23.402Z,100.00
2022-10-13T05:37:23.860Z,100.00
2022-10-13T05:42:23.419Z,99.68
2022-10-13T05:47:23.185Z,99.68
2022-10-13T05:52:23.200Z,98.04
2022-10-13T05:57:23.200Z,97.66
2022-10-13T06:02:23.381Z,97.28
2022-10-13T06:07:23.414Z,96.68
2022-10-13T06:12:23.465Z,96.65
2022-10-13T06:17:23.330Z,96.62
2022-10-13T06:22:23.286Z,97.61
2022-10-13T06:27:23.298Z,97.16
2022-10-13T06:32:23.533Z,97.16
2022-10-13T06:37:27.170Z,97.97
2022-10-13T06:42:23.648Z,98.17
2022-10-13T06:47:23.190Z,98.15
2022-10-13T06:52:23.228Z,98.01
2022-10-13T06:57:23.190Z,98.01
2022-10-13T07:02:23.403Z,97.79
2022-10-13T07:07:23.242Z,97.79
2022-10-13T07:12:23.355Z,97.35
2022-10-13T07:17:23.625Z,98.78
2022-10-13T07:22:23.191Z,98.34
2022-10-13T07:27:23.862Z,98.75
2022-10-13T07:32:23.259Z,98.06
2022-10-13T07:37:23.482Z,96.40
2022-10-13T07:42:23.230Z,95.96
2022-10-13T07:47:23.373Z,92.95
2022-10-13T07:52:23.388Z,89.90
2022-10-13T07:57:23.363Z,87.32
2022-10-13T08:02:23.262Z,85.29
2022-10-13T08:07:23.592Z,83.93
2022-10-13T08:12:23.228Z,81.79
2022-10-13T08:17:23.604Z,78.57
2022-10-13T08:22:27.349Z,74.62
2022-10-13T08:27:23.505Z,74.62
2022-10-13T08:32:23.316Z,65.65
2022-10-13T08:37:23.256Z,57.73
2022-10-13T08:42:23.259Z,54.29
2022-10-13T08:47:23.547Z,53.94
2022-10-13T08:52:23.342Z,50.29
2022-10-13T08:57:23.485Z,50.29
2022-10-13T09:02:23.302Z,48.99
2022-10-13T09:07:23.510Z,50.46
2022-10-13T09:12:23.285Z,48.38
2022-10-13T09:17:23.274Z,48.38
2022-10-13T09:22:23.284Z,48.46
2022-10-13T09:27:23.359Z,48.45
2022-10-13T09:37:23.424Z,51.34
2022-10-13T09:42:23.466Z,52.03
2022-10-13T09:47:23.627Z,54.16
2022-10-13T09:52:23.537Z,54.01
2022-10-13T09:57:23.602Z,54.01
2022-10-13T10:02:25.075Z,54.06
2022-10-13T10:07:23.566Z,55.26
2022-10-13T10:12:27.551Z,57.35
2022-10-13T10:17:23.516Z,57.35
2022-10-13T10:22:23.384Z,56.68
2022-10-13T10:27:23.337Z,57.83
2022-10-13T10:32:23.507Z,57.27
2022-10-13T10:37:25.362Z,57.27
2022-10-13T10:42:23.349Z,57.39
2022-10-13T10:47:23.775Z,57.00
2022-10-13T10:52:23.304Z,57.01
2022-10-13T10:57:23.341Z,57.06
2022-10-13T11:02:23.558Z,56.89
2022-10-13T11:07:23.367Z,56.59
2022-10-13T11:12:23.575Z,56.62
2022-10-13T11:17:23.671Z,56.91
2022-10-13T11:22:23.815Z,57.10
2022-10-13T11:27:23.618Z,57.10
2022-10-13T11:32:23.444Z,56.03
2022-10-13T11:37:23.658Z,55.91
2022-10-13T11:42:23.614Z,55.83
2022-10-13T11:47:23.672Z,55.67
2022-10-13T11:52:23.498Z,56.04
2022-10-13T11:57:23.560Z,54.59
2022-10-13T12:02:23.599Z,54.46
2022-10-13T12:07:23.567Z,54.95
2022-10-13T12:12:23.772Z,54.39
2022-10-13T12:17:24.074Z,54.39
2022-10-13T12:22:23.630Z,55.83
2022-10-13T12:27:23.418Z,55.63
2022-10-13T12:32:23.603Z,55.12
2022-10-13T12:37:23.412Z,55.40
2022-10-13T12:42:23.550Z,55.02
2022-10-13T12:47:23.348Z,55.34
2022-10-13T12:52:23.382Z,55.42
2022-10-13T12:57:23.655Z,55.42
2022-10-13T13:02:23.523Z,54.54
2022-10-13T13:07:23.650Z,54.57
2022-10-13T13:12:23.724Z,54.57
2022-10-13T13:17:38.888Z,54.44
2022-10-13T13:22:23.656Z,54.35
2022-10-13T13:27:23.643Z,54.16
2022-10-13T13:32:23.731Z,54.74
2022-10-13T13:37:23.509Z,54.79
2022-10-13T13:42:23.676Z,54.21
2022-10-13T13:47:23.677Z,54.72
2022-10-13T13:52:23.516Z,53.93
2022-10-13T14:02:23.639Z,54.37
2022-10-13T14:07:23.679Z,54.42
2022-10-13T14:12:23.686Z,54.50
2022-10-13T14:17:23.452Z,54.48
2022-10-13T14:27:23.975Z,54.46
2022-10-13T14:32:23.768Z,54.90
2022-10-13T14:37:25.779Z,54.90
2022-10-13T14:42:23.433Z,55.60
2022-10-13T14:47:24.071Z,55.64
2022-10-13T14:52:23.409Z,56.12
2022-10-13T14:57:23.905Z,56.55
2022-10-13T15:02:23.467Z,57.44
2022-10-13T15:07:23.907Z,57.39
2022-10-13T15:12:23.818Z,57.86
2022-10-13T15:17:23.682Z,58.59
2022-10-13T15:22:23.787Z,58.91
2022-10-13T15:27:23.535Z,59.41
2022-10-13T15:32:23.812Z,59.97
2022-10-13T15:37:23.498Z,61.47
2022-10-13T15:42:23.671Z,61.47
2022-10-13T15:47:23.486Z,62.17
2022-10-13T15:52:23.928Z,62.86
2022-10-13T15:57:23.755Z,63.69
2022-10-13T16:02:23.700Z,64.72
2022-10-13T16:07:23.729Z,65.49
2022-10-13T16:12:23.465Z,66.60
2022-10-13T16:17:23.676Z,66.60
2022-10-13T16:22:23.650Z,67.95
2022-10-13T16:27:23.493Z,69.03
2022-10-13T16:32:23.578Z,69.87
2022-10-13T16:37:24.144Z,70.56
2022-10-13T16:42:23.521Z,71.21
2022-10-13T16:47:23.948Z,71.78
2022-10-13T16:52:23.514Z,72.58
2022-10-13T16:57:23.818Z,73.22
2022-10-13T17:02:23.523Z,74.50
2022-10-13T17:07:23.940Z,75.09
2022-10-13T17:12:23.805Z,75.94
2022-10-13T17:17:23.833Z,75.94
2022-10-13T17:22:23.527Z,77.46
2022-10-13T17:27:24.091Z,78.26
2022-10-13T17:32:23.532Z,79.28
2022-10-13T17:37:23.910Z,79.78
2022-10-13T17:42:23.717Z,80.33
2022-10-13T17:47:23.774Z,80.24
2022-10-13T17:52:23.659Z,81.82
2022-10-13T17:57:23.954Z,82.51
2022-10-13T18:02:23.615Z,83.13
2022-10-13T18:07:23.913Z,82.47
2022-10-13T18:12:23.555Z,83.56
2022-10-13T18:17:23.959Z,83.13
2022-10-13T18:22:24.852Z,83.61
2022-10-13T18:27:24.031Z,84.42
2022-10-13T18:32:23.743Z,84.76
2022-10-13T18:37:23.591Z,85.33
2022-10-13T18:42:23.588Z,85.33
2022-10-13T18:47:23.943Z,84.63
2022-10-13T18:52:23.819Z,85.37
2022-10-13T18:57:24.077Z,85.91
2022-10-13T19:02:23.944Z,85.91
2022-10-13T19:07:23.931Z,86.29
2022-10-13T19:12:23.833Z,87.35
2022-10-13T19:17:23.858Z,87.35
2022-10-13T19:22:23.923Z,87.62
2022-10-13T19:27:23.982Z,88.24
2022-10-13T19:32:23.548Z,88.24
2022-10-13T19:37:23.978Z,86.92
2022-10-13T19:42:23.803Z,88.31
2022-10-13T19:47:23.969Z,88.00
2022-10-13T19:52:24.496Z,87.76
2022-10-13T19:57:23.959Z,87.99
2022-10-13T20:02:23.909Z,87.99
2022-10-13T20:07:23.772Z,88.69
2022-10-13T20:12:23.849Z,89.39
2022-10-13T20:22:23.801Z,89.62
2022-10-13T20:27:24.092Z,90.11
2022-10-13T20:32:23.582Z,90.11
2022-10-13T20:37:24.221Z,89.68
2022-10-13T20:42:23.631Z,89.90
2022-10-13T20:47:23.993Z,89.36
2022-10-13T20:52:23.676Z,90.64
2022-10-13T20:57:23.994Z,90.15
2022-10-13T21:02:23.589Z,90.18
2022-10-13T21:07:24.004Z,90.08
2022-10-13T21:12:23.631Z,89.68
2022-10-13T21:17:23.825Z,89.62
2022-10-13T21:22:23.630Z,90.39
2022-10-13T21:27:23.873Z,90.39
2022-10-13T21:32:23.598Z,91.67
2022-10-13T21:37:23.991Z,92.38
2022-10-13T21:42:23.630Z,92.10
2022-10-13T21:47:23.894Z,91.45
2022-10-13T21:52:23.641Z,91.01
2022-10-13T21:57:23.888Z,90.97
2022-10-13T22:02:23.653Z,92.52
2022-10-13T22:07:23.989Z,93.55
2022-10-13T22:12:23.683Z,93.54
2022-10-13T22:22:27.463Z,91.94
2022-10-13T22:27:23.989Z,90.11
2022-10-13T22:32:23.646Z,89.59
2022-10-13T22:37:24.033Z,89.96
2022-10-13T22:42:23.972Z,89.90
2022-10-13T22:47:24.028Z,90.03
2022-10-13T22:52:23.900Z,89.72
2022-10-13T22:57:23.971Z,89.40
2022-10-13T23:02:23.862Z,88.47
2022-10-13T23:07:23.955Z,88.47
2022-10-13T23:12:23.859Z,91.18
2022-10-13T23:17:24.409Z,91.18
2022-10-13T23:22:23.777Z,89.27
2022-10-13T23:27:23.893Z,90.59
2022-10-13T23:32:23.779Z,90.59
2022-10-13T23:37:24.193Z,90.59
2022-10-13T23:42:23.675Z,88.15
2022-10-13T23:47:24.100Z,88.15
2022-10-13T23:52:23.817Z,87.88
2022-10-13T23:57:24.068Z,87.64
